Time;durP1;ratioP1;P1;durP2;ratioP2;P2;SDS_P1;SDS_P2;PMS_P1;PMS_P2;Temp;Humidity;BMP_temperature;BMP_pressure;BME280_temperature;BME280_humidity;BME280_pressure;Samples;Min_cycle;Max_cycle;Signal;HPM_P1;HPM_P2
2024/01/23 05:22:33;;;;;;;3.58;1.30;;;;;;;6.95;100.00;101238.81;5085593;28;20939;-37
2024/01/23 05:24:58;;;;;;;3.75;1.13;;;;;;;6.98;100.00;101253.63;5089163;28;20040;-37
2024/01/23 05:27:23;;;;;;;2.00;0.90;;;;;;;6.97;100.00;101279.25;5088886;28;20412;-33
2024/01/23 05:29:49;;;;;;;2.33;1.35;;;;;;;6.93;100.00;101284.94;5075503;28;20033;-38
2024/01/23 05:32:14;;;;;;;3.35;1.05;;;;;;;6.95;100.00;101283.84;5068850;28;20556;-33
2024/01/23 05:34:40;;;;;;;4.80;1.13;;;;;;;6.95;100.00;101290.94;5068892;28;20044;-33
2024/01/23 05:37:05;;;;;;;1.95;0.93;;;;;;;6.90;100.00;101301.06;5068451;28;20036;-36
2024/01/23 05:39:36;;;;;;;2.30;0.90;;;;;;;6.84;100.00;101302.41;5068574;28;20449;-33
2024/01/23 05:42:02;;;;;;;3.80;1.15;;;;;;;6.88;100.00;101311.78;5068615;28;20040;-33
2024/01/23 05:44:28;;;;;;;3.35;1.15;;;;;;;6.83;100.00;101311.31;5068453;28;20032;-36
2024/01/23 05:46:53;;;;;;;2.60;0.90;;;;;;;6.92;100.00;101310.59;5067074;28;20033;-37
2024/01/23 05:49:18;;;;;;;2.45;1.08;;;;;;;6.80;100.00;101325.66;5068543;28;20033;-36
2024/01/23 05:51:44;;;;;;;1.73;0.93;;;;;;;6.78;100.00;101337.31;5068477;28;20047;-33
2024/01/23 05:54:09;;;;;;;4.05;1.08;;;;;;;6.73;100.00;101339.50;5068276;28;20033;-36
2024/01/23 05:56:35;;;;;;;2.90;0.88;;;;;;;6.51;100.00;101349.13;5068317;28;20041;-33
2024/01/23 05:59:00;;;;;;;5.15;1.30;;;;;;;6.50;100.00;101347.44;5068193;28;20078;-33
2024/01/23 06:01:26;;;;;;;2.85;1.00;;;;;;;6.48;100.00;101349.38;5068210;28;20412;-33
2024/01/23 06:03:52;;;;;;;4.25;2.20;;;;;;;6.50;100.00;101355.38;5068251;28;20064;-38
2024/01/23 06:06:19;;;;;;;4.20;1.15;;;;;;;6.37;100.00;101361.75;5067993;28;20123;-33
2024/01/23 06:08:44;;;;;;;3.67;1.02;;;;;;;6.47;100.00;101368.03;5067774;28;20746;-33
2024/01/23 06:11:10;;;;;;;3.78;1.05;;;;;;;6.39;100.00;101368.63;5068108;28;20035;-36
2024/01/23 06:13:35;;;;;;;2.92;1.00;;;;;;;6.28;100.00;101373.06;5068068;28;20037;-33
2024/01/23 06:16:00;;;;;;;2.67;0.90;;;;;;;6.32;100.00;101385.09;5067969;28;20044;-33
2024/01/23 06:18:26;;;;;;;1.95;1.05;;;;;;;6.36;100.00;101386.53;5067605;28;20036;-36
2024/01/23 06:20:51;;;;;;;4.28;1.15;;;;;;;6.41;100.00;101387.03;5067654;28;20040;-33
2024/01/23 06:23:16;;;;;;;2.00;0.95;;;;;;;6.36;100.00;101394.47;5067732;28;20029;-33
2024/01/23 06:25:42;;;;;;;2.10;0.88;;;;;;;6.15;100.00;101403.09;5067715;28;20070;-36
2024/01/23 06:28:07;;;;;;;1.38;0.75;;;;;;;5.94;100.00;101404.75;5067485;28;20041;-34
2024/01/23 06:30:34;;;;;;;0.95;0.80;;;;;;;5.79;100.00;101409.31;5067671;28;20039;-37
2024/01/23 06:32:59;;;;;;;5.25;1.35;;;;;;;5.69;100.00;101403.88;5059102;28;20040;-35
2024/01/23 06:35:24;;;;;;;2.72;1.27;;;;;;;5.69;100.00;101405.69;5054299;28;20140;-34
2024/01/23 06:37:50;;;;;;;1.65;0.95;;;;;;;5.74;100.00;101400.91;5054098;28;20036;-33
2024/01/23 06:40:15;;;;;;;2.50;0.80;;;;;;;5.67;100.00;101397.88;5054309;28;20120;-33
2024/01/23 06:42:40;;;;;;;4.05;1.23;;;;;;;5.52;100.00;101396.34;5054265;28;20076;-36
2024/01/23 06:45:06;;;;;;;4.90;0.98;;;;;;;5.53;100.00;101411.25;5054177;28;20041;-39
2024/01/23 06:47:31;;;;;;;1.30;0.70;;;;;;;5.43;100.00;101410.25;5053995;28;20064;-34
2024/01/23 06:49:57;;;;;;;1.88;0.80;;;;;;;5.47;100.00;101424.91;5053999;28;20381;-36
2024/01/23 06:52:22;;;;;;;2.25;0.70;;;;;;;5.55;100.00;101432.28;5053966;28;20033;-37
2024/01/23 06:54:48;;;;;;;3.45;1.15;;;;;;;11.34;100.00;101422.69;5054146;28;20086;-31
2024/01/23 06:57:13;;;;;;;0.70;0.60;;;;;;;13.44;96.15;101431.56;5053710;28;20039;-31
2024/01/23 06:59:38;;;;;;;1.33;0.82;;;;;;;6.82;100.00;101439.41;5053796;28;20033;-36
2024/01/23 07:02:04;;;;;;;3.88;0.98;;;;;;;5.91;100.00;101445.47;5053342;28;20037;-33
2024/01/23 07:04:30;;;;;;;3.63;0.77;;;;;;;5.83;100.00;101446.97;5052910;28;20049;-34
2024/01/23 07:06:55;;;;;;;1.80;1.08;;;;;;;5.66;100.00;101459.59;5052759;28;20431;-38
2024/01/23 07:09:21;;;;;;;2.53;0.90;;;;;;;5.68;100.00;101455.06;5053307;28;20033;-33
2024/01/23 07:11:47;;;;;;;2.05;1.25;;;;;;;5.62;100.00;101463.44;5053491;28;20021;-38
2024/01/23 07:14:12;;;;;;;4.22;1.05;;;;;;;5.56;100.00;101469.19;5053570;28;20060;-33
2024/01/23 07:16:38;;;;;;;3.53;1.30;;;;;;;5.60;100.00;101465.34;5053510;28;20029;-33
2024/01/23 07:19:03;;;;;;;2.45;1.10;;;;;;;5.48;100.00;101468.91;5053393;28;20481;-34
2024/01/23 07:21:28;;;;;;;3.67;1.58;;;;;;;5.56;100.00;101471.81;5053148;28;20484;-37
2024/01/23 07:23:54;;;;;;;3.80;1.00;;;;;;;5.52;100.00;101473.00;5053518;28;20548;-37
2024/01/23 07:26:19;;;;;;;3.97;1.08;;;;;;;5.52;100.00;101466.88;5053435;28;20488;-35
2024/01/23 07:28:45;;;;;;;4.00;1.52;;;;;;;5.63;100.00;101467.78;5053193;28;20040;-38
2024/01/23 07:31:11;;;;;;;5.55;1.70;;;;;;;5.68;100.00;101478.88;5053287;28;20052;-33
2024/01/23 07:33:37;;;;;;;3.08;1.10;;;;;;;5.68;100.00;101492.09;5053253;28;20402;-34
2024/01/23 07:36:02;;;;;;;2.33;0.93;;;;;;;5.69;100.00;101499.06;5053419;28;20041;-34
2024/01/23 07:38:28;;;;;;;3.92;1.30;;;;;;;5.87;100.00;101503.97;5052927;28;20041;-34
2024/01/23 07:40:53;;;;;;;6.05;1.20;;;;;;;6.02;100.00;101504.66;5053150;28;20038;-38
2024/01/23 07:43:24;;;;;;;6.07;1.60;;;;;;;6.30;100.00;101503.44;5053153;28;20108;-34
2024/01/23 07:45:49;;;;;;;4.70;1.23;;;;;;;6.20;100.00;101516.53;5052389;28;20401;-36
2024/01/23 07:48:15;;;;;;;3.53;1.30;;;;;;;6.17;100.00;101524.69;5052778;28;20020;-37
2024/01/23 07:50:40;;;;;;;4.82;1.30;;;;;;;6.10;100.00;101526.09;5052998;28;20378;-36
2024/01/23 07:53:05;;;;;;;4.88;1.48;;;;;;;6.09;100.00;101533.19;5052887;28;20048;-40
2024/01/23 07:55:31;;;;;;;6.03;1.98;;;;;;;6.12;100.00;101543.53;5052904;28;20029;-34
2024/01/23 07:57:56;;;;;;;2.88;1.45;;;;;;;6.30;100.00;101551.09;5052570;28;20439;-34
2024/01/23 08:00:22;;;;;;;5.18;1.40;;;;;;;6.42;100.00;101558.13;5052529;28;20033;-35
2024/01/23 08:02:48;;;;;;;4.50;1.65;;;;;;;8.02;100.00;101542.03;5052539;28;20116;-38
2024/01/23 08:05:13;;;;;;;5.30;1.52;;;;;;;8.26;100.00;101547.16;5052559;28;20128;-34
2024/01/23 08:07:41;;;;;;;6.55;2.05;;;;;;;8.37;100.00;101553.28;5052426;28;20028;-35
2024/01/23 08:10:09;;;;;;;4.22;1.77;;;;;;;9.56;100.00;101560.84;5052417;28;20033;-34
2024/01/23 08:12:34;;;;;;;2.85;1.35;;;;;;;10.56;93.09;101571.38;5046058;28;20111;-34
2024/01/23 08:14:59;;;;;;;3.40;1.40;;;;;;;10.43;92.08;101565.50;5052460;28;20129;-37
2024/01/23 08:17:26;;;;;;;4.78;2.67;;;;;;;10.71;88.34;101577.97;5051564;28;20071;-34
2024/01/23 08:19:51;;;;;;;4.20;1.40;;;;;;;11.03;87.65;101580.31;5052198;28;20094;-34
2024/01/23 08:22:17;;;;;;;3.70;1.42;;;;;;;9.12;99.01;101589.44;5051966;28;20041;-34
2024/01/23 08:24:42;;;;;;;2.05;1.40;;;;;;;8.32;100.00;101589.97;5052229;28;20041;-35
2024/01/23 08:27:08;;;;;;;5.82;1.58;;;;;;;8.13;100.00;101585.31;5051268;28;20032;-38
2024/01/23 08:29:34;;;;;;;5.93;1.92;;;;;;;7.88;100.00;101586.44;5052104;28;20443;-33
2024/01/23 08:32:00;;;;;;;3.08;1.45;;;;;;;8.28;100.00;101582.38;5052115;28;20039;-34
2024/01/23 08:34:26;;;;;;;5.75;2.20;;;;;;;9.01;100.00;101586.91;5052026;28;20129;-34
2024/01/23 08:36:51;;;;;;;4.68;1.67;;;;;;;8.51;100.00;101591.97;5051287;28;20052;-34
2024/01/23 08:39:17;;;;;;;5.28;1.45;;;;;;;8.37;100.00;101587.81;5051915;28;20031;-36
2024/01/23 08:41:43;;;;;;;2.72;1.33;;;;;;;7.67;100.00;101590.81;5051652;28;20068;-35
2024/01/23 08:44:08;;;;;;;2.92;1.77;;;;;;;9.94;95.00;101584.06;5051856;28;20123;-37
2024/01/23 08:46:34;;;;;;;4.13;1.38;;;;;;;9.72;95.92;101586.94;5050273;28;20139;-34
2024/01/23 08:48:59;;;;;;;4.25;1.45;;;;;;;9.58;95.42;101582.81;5051194;28;20036;-34
2024/01/23 08:51:26;;;;;;;3.72;1.30;;;;;;;10.53;89.09;101582.31;5051620;28;20041;-36
2024/01/23 08:53:52;;;;;;;4.80;1.60;;;;;;;10.83;87.61;101584.84;5051926;28;20025;-35
2024/01/23 08:56:21;;;;;;;3.58;1.70;;;;;;;10.64;88.62;101590.19;5051030;28;20036;-36
2024/01/23 08:58:47;;;;;;;5.22;1.55;;;;;;;10.92;86.23;101585.81;5051038;28;20043;-34
2024/01/23 09:01:12;;;;;;;3.00;1.45;;;;;;;10.82;88.25;101599.16;5051343;28;20120;-39
2024/01/23 09:03:38;;;;;;;3.95;1.30;;;;;;;9.20;96.52;101605.63;5051587;28;20170;-36
2024/01/23 09:06:06;;;;;;;4.40;1.48;;;;;;;10.46;88.74;101608.69;5051406;28;20071;-34
2024/01/23 09:08:31;;;;;;;4.65;1.48;;;;;;;9.92;93.35;101614.47;5051010;28;20033;-34
2024/01/23 09:10:57;;;;;;;5.97;1.55;;;;;;;10.52;90.12;101626.78;5051249;28;20060;-38
2024/01/23 09:13:22;;;;;;;3.15;1.60;;;;;;;10.10;93.70;101628.78;5051298;28;20416;-36
2024/01/23 09:15:48;;;;;;;6.00;1.40;;;;;;;10.61;90.77;101627.75;5051431;28;20177;-36
2024/01/23 09:18:13;;;;;;;3.35;1.40;;;;;;;10.13;91.16;101633.84;5050449;28;20033;-39
2024/01/23 09:20:38;;;;;;;3.72;1.55;;;;;;;10.19;92.44;101633.31;5065435;28;20041;-39
2024/01/23 09:23:04;;;;;;;3.08;1.45;;;;;;;11.26;85.06;101646.63;5050392;28;20130;-33
2024/01/23 09:25:29;;;;;;;5.35;1.60;;;;;;;10.45;90.69;101648.78;5051138;28;20390;-34
2024/01/23 09:27:56;;;;;;;4.40;1.58;;;;;;;10.10;93.00;101650.06;5050557;28;20037;-39
2024/01/23 09:30:21;;;;;;;3.22;1.50;;;;;;;10.35;90.59;101663.91;5051018;28;20036;-37
2024/01/23 09:32:47;;;;;;;3.97;1.58;;;;;;;10.90;91.10;101651.75;5051373;28;20044;-38
2024/01/23 09:35:13;;;;;;;6.15;2.08;;;;;;;11.03;87.59;101678.97;5051175;28;20029;-39
2024/01/23 09:37:38;;;;;;;7.70;1.60;;;;;;;10.01;93.20;101688.16;5050536;28;20448;-35
2024/01/23 09:40:11;;;;;;;4.88;1.80;;;;;;;9.38;97.87;101695.41;5051171;28;20511;-36
2024/01/23 09:42:39;;;;;;;2.90;1.40;;;;;;;8.94;100.00;101692.03;5048158;28;20029;-37
2024/01/23 09:45:15;;;;;;;6.18;1.50;;;;;;;9.87;98.68;101693.88;5051196;28;20407;-34
2024/01/23 09:47:41;;;;;;;5.80;1.60;;;;;;;10.29;93.32;101683.94;5043444;28;20029;-35
2024/01/23 09:50:11;;;;;;;3.97;1.80;;;;;;;9.63;98.26;101694.16;5050616;28;20040;-45
2024/01/23 09:52:38;;;;;;;6.13;1.85;;;;;;;9.87;97.56;101683.22;5051156;28;20032;-34
2024/01/23 09:55:04;;;;;;;;;;;;;;;9.88;95.47;101680.41;5051465;28;20040;-34
2024/01/23 09:57:30;;;;;;;3.25;1.38;;;;;;;9.77;97.07;101686.66;5049889;28;19974;-33
2024/01/23 09:59:55;;;;;;;4.60;1.48;;;;;;;11.38;89.18;101685.50;5050941;28;20060;-37
2024/01/23 10:02:21;;;;;;;6.00;1.50;;;;;;;11.05;88.40;101676.16;5049607;28;20073;-35
2024/01/23 10:04:51;;;;;;;6.75;1.58;;;;;;;10.20;92.64;101671.41;5051007;28;20043;-33
2024/01/23 10:07:16;;;;;;;6.68;1.73;;;;;;;11.37;88.70;101681.16;5050454;28;20437;-35
2024/01/23 10:09:48;;;;;;;3.65;1.70;;;;;;;11.28;87.02;101674.00;5054754;28;20082;-34
2024/01/23 10:12:13;;;;;;;3.25;1.17;;;;;;;11.19;84.67;101678.38;5054516;28;20055;-33
2024/01/23 10:14:43;;;;;;;5.30;2.15;;;;;;;11.76;81.19;101671.22;5054623;28;20084;-35
2024/01/23 10:17:09;;;;;;;3.53;1.63;;;;;;;11.58;82.51;101681.81;5053888;28;20094;-37
2024/01/23 10:19:34;;;;;;;4.15;1.50;;;;;;;11.80;82.25;101687.75;5054498;28;20481;-35
2024/01/23 10:22:00;;;;;;;5.93;1.75;;;;;;;12.04;81.49;101682.78;5054503;28;20041;-37
2024/01/23 10:24:25;;;;;;;6.18;1.70;;;;;;;11.77;81.13;101690.75;5054511;28;20037;-33
2024/01/23 10:26:51;;;;;;;5.75;1.80;;;;;;;11.71;80.17;101684.16;5053616;28;20063;-37
2024/01/23 10:29:16;;;;;;;4.30;1.70;;;;;;;12.28;79.02;101682.25;5054183;28;20516;-35
2024/01/23 10:31:42;;;;;;;6.32;2.17;;;;;;;11.41;82.64;101691.41;5054468;28;20038;-33
2024/01/23 10:34:12;;;;;;;5.40;1.88;;;;;;;11.04;85.71;101688.66;5054119;28;20052;-40
2024/01/23 10:36:39;;;;;;;4.43;1.70;;;;;;;11.56;81.66;101688.28;5054121;28;20032;-34
2024/01/23 10:39:04;;;;;;;4.00;1.88;;;;;;;12.14;79.38;101672.06;5054090;28;20043;-34
2024/01/23 10:41:31;;;;;;;5.43;1.67;;;;;;;12.13;79.06;101686.41;5053804;28;20451;-37
2024/01/23 10:44:01;;;;;;;5.80;1.70;;;;;;;11.63;82.35;101682.22;5048797;28;20125;-36
2024/01/23 10:46:28;;;;;;;5.78;2.00;;;;;;;11.54;81.53;101680.44;5048891;28;20578;-39
2024/01/23 10:48:54;;;;;;;8.10;1.95;;;;;;;11.81;79.85;101670.81;5049463;28;20033;-41
2024/01/23 10:51:20;;;;;;;5.53;1.77;;;;;;;11.93;80.38;101658.94;5048423;28;20445;-45
2024/01/23 10:53:57;;;;;;;4.32;1.88;;;;;;;12.16;76.91;101646.88;5049852;28;20574;-40
2024/01/23 10:56:24;;;;;;;4.25;1.70;;;;;;;12.36;76.65;101644.91;5049353;28;20030;-39
2024/01/23 10:59:00;;;;;;;5.80;1.40;;;;;;;12.05;79.87;101647.06;5049248;28;20476;-42
2024/01/23 11:01:34;;;;;;;4.40;1.70;;;;;;;11.75;78.49;101652.69;5048840;28;20041;-40
2024/01/23 11:04:00;;;;;;;3.65;1.27;;;;;;;11.43;78.87;101650.41;5049313;28;20272;-42
2024/01/23 11:06:32;;;;;;;8.88;2.38;;;;;;;10.97;79.54;101654.69;5047162;28;20029;-37
2024/01/23 11:09:08;;;;;;;4.90;1.60;;;;;;;11.04;80.93;101651.31;5048833;28;20048;-40
2024/01/23 11:12:03;;;;;;;6.70;1.55;;;;;;;11.11;81.18;101654.25;5049757;28;20033;-38
2024/01/23 11:14:46;;;;;;;6.18;1.90;;;;;;;10.28;86.63;101644.97;5048745;28;20075;-37
2024/01/23 11:17:13;;;;;;;5.18;1.80;;;;;;;10.38;86.63;101653.00;5047130;28;20060;-41
2024/01/23 11:19:43;;;;;;;3.90;1.13;;;;;;;10.27;84.34;101649.47;5046661;28;20044;-37
2024/01/23 11:22:09;;;;;;;7.88;1.77;;;;;;;10.16;83.02;101651.34;5043080;28;20568;-35
2024/01/23 11:24:47;;;;;;;5.85;1.60;;;;;;;10.25;82.21;101635.44;5059658;28;20100;-41
2024/01/23 11:27:24;;;;;;;4.70;1.90;;;;;;;11.28;76.14;101656.19;5051370;28;20043;-37
2024/01/23 11:29:51;;;;;;;4.97;1.60;;;;;;;10.88;74.48;101661.69;5053285;28;20039;-40
2024/01/23 11:32:23;;;;;;;6.95;1.98;;;;;;;10.76;74.71;101663.69;5054502;28;20550;-42
2024/01/23 11:35:02;;;;;;;3.05;1.20;;;;;;;10.54;74.77;101664.78;5053246;28;20029;-39
2024/01/23 11:37:54;;;;;;;6.88;1.60;;;;;;;10.51;77.41;101662.41;5052599;28;20063;-41
2024/01/23 11:40:37;;;;;;;9.38;2.17;;;;;;;11.06;73.92;101660.00;5068402;28;20095;-41
2024/01/23 11:43:07;;;;;;;8.30;1.70;;;;;;;11.36;73.33;101666.16;5048854;28;20114;-39
2024/01/23 11:45:37;;;;;;;6.07;1.75;;;;;;;11.37;71.81;101667.81;5052896;28;20098;-37
2024/01/23 11:48:04;;;;;;;3.42;1.48;;;;;;;11.69;72.40;101672.78;5052321;28;20040;-39
2024/01/23 11:50:32;;;;;;;5.15;1.95;;;;;;;11.67;71.39;101672.06;5052739;28;20040;-39
2024/01/23 11:52:59;;;;;;;3.10;1.63;;;;;;;11.57;70.15;101669.44;5052907;28;20057;-39
2024/01/23 11:55:25;;;;;;;7.15;2.38;;;;;;;11.92;73.53;101671.44;5052591;28;20048;-41
2024/01/23 11:57:56;;;;;;;4.05;1.73;;;;;;;11.47;72.12;101667.78;5052042;28;20693;-39
2024/01/23 12:00:22;;;;;;;7.57;1.98;;;;;;;11.21;73.84;101671.06;5052563;28;20044;-39
2024/01/23 12:02:48;;;;;;;5.20;1.73;;;;;;;10.82;76.45;101670.25;5052655;28;20048;-39
2024/01/23 12:05:14;;;;;;;6.38;2.03;;;;;;;11.33;73.85;101675.25;5052431;28;20032;-38
2024/01/23 12:07:41;;;;;;;8.20;1.75;;;;;;;11.47;73.66;101662.44;5051903;28;20542;-39
2024/01/23 12:10:08;;;;;;;7.10;1.58;;;;;;;10.90;75.60;101659.75;5052529;28;20123;-39
2024/01/23 12:12:33;;;;;;;4.20;1.57;;;;;;;10.19;78.02;101649.28;5052080;28;20021;-38
2024/01/23 12:14:59;;;;;;;5.25;1.63;;;;;;;10.07;79.21;101661.00;5048237;28;20554;-39
2024/01/23 12:17:24;;;;;;;2.67;1.20;;;;;;;9.91;80.53;101664.19;5051473;28;20041;-39
2024/01/23 12:19:49;;;;;;;5.57;1.52;;;;;;;10.12;76.20;101657.94;5052237;28;20033;-39
2024/01/23 12:22:16;;;;;;;6.60;1.52;;;;;;;9.66;78.98;101661.97;5052115;28;20033;-37
2024/01/23 12:24:42;;;;;;;2.92;1.02;;;;;;;9.82;82.45;101645.50;5051903;28;20067;-42
2024/01/23 12:27:08;;;;;;;4.50;1.70;;;;;;;9.87;82.76;101660.09;5046525;28;20029;-39
2024/01/23 12:29:34;;;;;;;2.55;1.50;;;;;;;9.57;82.02;101652.13;5049785;28;20444;-37
2024/01/23 12:32:00;;;;;;;6.55;1.55;;;;;;;9.51;84.36;101646.34;5048389;28;20036;-40
2024/01/23 12:34:25;;;;;;;4.47;1.67;;;;;;;9.44;84.43;101650.50;5050345;28;20041;-38
2024/01/23 12:36:51;;;;;;;5.25;1.75;;;;;;;9.67;83.47;101642.38;5048894;28;20189;-39
2024/01/23 12:39:17;;;;;;;9.90;1.73;;;;;;;9.61;84.43;101642.91;5048506;28;20402;-41
2024/01/23 12:41:42;;;;;;;4.70;1.70;;;;;;;9.67;82.73;101651.19;5049934;28;20029;-33
2024/01/23 12:44:08;;;;;;;6.75;2.30;;;;;;;10.04;79.91;101655.94;5045211;28;20064;-33
2024/01/23 12:46:33;;;;;;;4.78;2.17;;;;;;;9.85;82.82;101647.91;5049173;28;20074;-33
2024/01/23 12:49:04;;;;;;;7.57;1.75;;;;;;;10.03;80.19;101624.97;5049161;28;20037;-35
2024/01/23 12:51:30;;;;;;;3.10;1.40;;;;;;;9.89;80.55;101620.03;5054015;28;20045;-32
2024/01/23 12:53:57;;;;;;;5.03;1.73;;;;;;;10.05;80.81;101621.22;5054721;28;20124;-34
2024/01/23 12:56:22;;;;;;;3.83;1.40;;;;;;;9.55;80.99;101617.69;5051822;28;20465;-34
2024/01/23 12:58:47;;;;;;;3.50;1.40;;;;;;;9.91;78.32;101621.59;5050127;28;20067;-34
2024/01/23 13:01:13;;;;;;;4.03;1.13;;;;;;;9.88;77.40;101605.06;5050687;28;20040;-33
2024/01/23 13:03:38;;;;;;;2.53;1.25;;;;;;;9.94;77.25;101584.06;5050903;28;20046;-33
2024/01/23 13:06:04;;;;;;;3.38;1.27;;;;;;;10.25;75.89;101590.19;5049595;28;20044;-35
2024/01/23 13:08:30;;;;;;;6.70;2.63;;;;;;;10.21;76.69;101599.38;5046942;28;20035;-34
2024/01/23 13:10:57;;;;;;;6.35;1.67;;;;;;;10.31;76.95;101600.28;5049434;28;20476;-33
2024/01/23 13:13:23;;;;;;;5.50;1.60;;;;;;;10.39;76.00;101596.91;5049404;28;20041;-33
2024/01/23 13:15:48;;;;;;;3.38;1.38;;;;;;;10.25;75.19;101589.34;5049549;28;20021;-33
2024/01/23 13:18:14;;;;;;;4.40;1.25;;;;;;;9.86;78.50;101585.72;5048681;28;20566;-33
2024/01/23 13:20:40;;;;;;;4.60;2.20;;;;;;;10.09;76.23;101584.50;5047067;28;20056;-33
2024/01/23 13:23:05;;;;;;;5.32;1.70;;;;;;;9.83;78.36;101575.34;5050366;28;20112;-33
2024/01/23 13:25:31;;;;;;;4.03;1.23;;;;;;;9.89;80.76;101567.66;5047040;28;20039;-33
2024/01/23 13:27:56;;;;;;;7.68;1.80;;;;;;;9.67;80.86;101575.88;5052562;28;20099;-32
2024/01/23 13:30:21;;;;;;;4.32;1.73;;;;;;;9.75;80.75;101576.84;5052516;28;20115;-33
2024/01/23 13:32:53;;;;;;;4.72;1.38;;;;;;;9.88;79.83;101573.13;5050912;28;20040;-33
2024/01/23 13:35:20;;;;;;;5.38;1.70;;;;;;;9.86;79.68;101572.41;5051129;28;20508;-33
2024/01/23 13:37:45;;;;;;;4.20;1.45;;;;;;;9.61;81.42;101568.41;5050069;28;20098;-33
2024/01/23 13:40:11;;;;;;;2.15;1.10;;;;;;;9.56;80.84;101570.63;5050964;28;20484;-34
2024/01/23 13:42:39;;;;;;;5.18;1.42;;;;;;;9.74;81.35;101582.31;5051814;28;20056;-33
2024/01/23 13:45:09;;;;;;;4.35;1.30;;;;;;;9.77;81.40;101579.38;5055048;28;20037;-35
2024/01/23 13:47:44;;;;;;;2.42;1.08;;;;;;;9.75;80.58;101578.69;5054003;28;20570;-33
2024/01/23 13:50:10;;;;;;;7.63;1.50;;;;;;;9.84;78.95;101564.53;5054904;28;20059;-33
2024/01/23 13:52:36;;;;;;;3.92;1.35;;;;;;;9.74;81.38;101564.53;5045434;28;20029;-33
2024/01/23 13:55:05;;;;;;;3.50;1.40;;;;;;;9.61;82.56;101573.75;5054632;28;20029;-33
2024/01/23 13:57:32;;;;;;;4.05;1.38;;;;;;;9.57;82.08;101572.31;5053615;28;20037;-33
2024/01/23 13:59:58;;;;;;;2.87;1.20;;;;;;;9.82;80.92;101566.50;5054654;28;20059;-33
2024/01/23 14:02:24;;;;;;;6.32;1.48;;;;;;;9.69;80.76;101568.56;5054660;28;20082;-32
2024/01/23 14:04:49;;;;;;;5.50;1.67;;;;;;;9.74;80.79;101558.38;5054644;28;20524;-32
2024/01/23 14:07:15;;;;;;;3.28;1.25;;;;;;;9.46;81.21;101562.63;5047658;28;20029;-34
2024/01/23 14:09:41;;;;;;;6.50;2.20;;;;;;;9.60;80.81;101566.75;5047936;28;20043;-34
2024/01/23 14:12:07;;;;;;;3.83;1.40;;;;;;;9.63;80.39;101563.78;5048658;28;20037;-32
2024/01/23 14:14:33;;;;;;;3.60;1.52;;;;;;;9.38;82.96;101562.44;5047740;28;20044;-34
2024/01/23 14:16:59;;;;;;;5.03;1.50;;;;;;;9.52;80.14;101559.44;5046592;28;20045;-33
2024/01/23 14:19:24;;;;;;;6.57;1.50;;;;;;;9.48;82.14;101556.19;5046254;28;20056;-33
2024/01/23 14:21:50;;;;;;;3.35;1.17;;;;;;;9.54;80.81;101552.16;5047973;28;20062;-34
2024/01/23 14:24:15;;;;;;;4.80;1.40;;;;;;;9.48;81.11;101548.22;5045119;28;20075;-35
2024/01/23 14:26:41;;;;;;;4.68;1.23;;;;;;;9.38;81.80;101546.47;5047059;28;20492;-32
2024/01/23 14:29:07;;;;;;;3.47;1.38;;;;;;;9.37;82.31;101555.44;5045721;28;20036;-32
2024/01/23 14:31:33;;;;;;;5.25;1.23;;;;;;;9.50;80.99;101559.53;5047204;28;20044;-32
2024/01/23 14:33:58;;;;;;;4.03;1.52;;;;;;;9.23;81.95;101562.78;5046709;28;20028;-33
2024/01/23 14:36:24;;;;;;;5.18;1.45;;;;;;;9.20;82.33;101563.06;5047946;28;20444;-35
2024/01/23 14:38:49;;;;;;;2.85;1.40;;;;;;;9.31;82.30;101569.25;5048911;28;20044;-34
2024/01/23 14:41:15;;;;;;;6.18;1.65;;;;;;;9.22;82.19;101566.44;5029587;28;20036;-35
2024/01/23 14:43:40;;;;;;;2.90;1.15;;;;;;;9.24;82.42;101566.28;5047084;28;20058;-34
2024/01/23 14:46:06;;;;;;;2.55;1.10;;;;;;;9.17;82.35;101565.16;5045354;28;20488;-34
2024/01/23 14:48:31;;;;;;;5.63;1.58;;;;;;;9.21;81.97;101577.22;5045918;28;20069;-34
2024/01/23 14:50:57;;;;;;;3.20;1.40;;;;;;;9.09;83.28;101583.56;5046697;28;20045;-34
2024/01/23 14:53:22;;;;;;;5.00;1.05;;;;;;;9.18;81.97;101586.28;5045033;28;20133;-35
2024/01/23 14:55:47;;;;;;;4.93;1.80;;;;;;;9.20;83.44;101588.81;5046952;28;20120;-35
2024/01/23 14:58:13;;;;;;;5.18;1.38;;;;;;;9.15;82.03;101593.69;5043384;28;20043;-35
2024/01/23 15:00:39;;;;;;;3.15;1.15;;;;;;;9.20;82.54;101594.97;5047397;28;20037;-35
2024/01/23 15:03:04;;;;;;;4.57;1.20;;;;;;;9.11;82.41;101600.22;5045841;28;20471;-34
2024/01/23 15:05:30;;;;;;;4.82;1.45;;;;;;;9.08;83.42;101608.47;5028448;28;20099;-35
2024/01/23 15:07:55;;;;;;;4.00;1.63;;;;;;;9.05;82.15;101608.72;5045884;28;20036;-33
2024/01/23 15:10:21;;;;;;;3.88;1.50;;;;;;;9.11;82.79;101605.53;5032412;28;20053;-35
2024/01/23 15:12:47;;;;;;;3.47;1.80;;;;;;;9.03;81.75;101616.84;5048661;28;20044;-34
2024/01/23 15:15:12;;;;;;;3.05;1.33;;;;;;;8.86;84.29;101599.63;5044669;28;20064;-34
2024/01/23 15:17:38;;;;;;;2.78;1.20;;;;;;;9.06;81.01;101605.94;5046833;28;20037;-33
2024/01/23 15:20:04;;;;;;;5.20;1.55;;;;;;;9.02;81.99;101609.84;5046835;28;20032;-34
2024/01/23 15:22:29;;;;;;;2.80;0.80;;;;;;;8.99;83.86;101610.06;5037037;28;20032;-34
2024/01/23 15:24:55;;;;;;;3.03;1.35;;;;;;;8.95;82.40;101620.16;5053969;28;20180;-34
2024/01/23 15:27:20;;;;;;;3.90;1.45;;;;;;;9.05;82.00;101606.91;5052935;28;20037;-34
2024/01/23 15:29:46;;;;;;;3.15;1.10;;;;;;;8.89;83.90;101618.00;5053378;28;20032;-34
2024/01/23 15:32:11;;;;;;;4.30;1.17;;;;;;;8.92;82.13;101615.06;5053462;28;20435;-34
2024/01/23 15:34:37;;;;;;;8.55;1.77;;;;;;;8.86;82.92;101615.59;5053309;28;20110;-34
2024/01/23 15:37:03;;;;;;;4.93;1.13;;;;;;;8.90;83.06;101611.72;5051465;28;20484;-33
2024/01/23 15:39:28;;;;;;;4.53;1.30;;;;;;;9.07;82.65;101618.28;5051859;28;20084;-34
2024/01/23 15:41:55;;;;;;;3.60;1.25;;;;;;;8.84;84.07;101606.91;5053120;28;20117;-33
2024/01/23 15:44:21;;;;;;;2.85;1.15;;;;;;;8.88;83.33;101607.50;5053147;28;20037;-33
2024/01/23 15:46:47;;;;;;;5.00;1.35;;;;;;;8.85;84.14;101599.78;5052212;28;20420;-37
2024/01/23 15:49:12;;;;;;;2.50;1.20;;;;;;;8.90;84.02;101593.09;5049339;28;20444;-41
2024/01/23 15:51:38;;;;;;;2.95;1.00;;;;;;;8.86;84.17;101594.31;5064170;28;20033;-38
2024/01/23 15:54:03;;;;;;;5.75;1.48;;;;;;;8.91;83.96;101588.63;5051218;28;20033;-36
2024/01/23 15:56:29;;;;;;;3.45;1.55;;;;;;;8.91;84.98;101586.81;5050891;28;20566;-35
2024/01/23 15:58:55;;;;;;;5.35;1.55;;;;;;;8.90;85.09;101590.44;5050577;28;20047;-34
2024/01/23 16:01:22;;;;;;;6.80;1.80;;;;;;;8.88;85.65;101595.06;5052388;28;20060;-39
2024/01/23 16:03:48;;;;;;;5.78;1.60;;;;;;;8.82;86.35;101589.41;5051553;28;20044;-34
2024/01/23 16:06:14;;;;;;;5.85;1.33;;;;;;;8.79;87.42;101582.53;5040461;28;20396;-37
2024/01/23 16:08:39;;;;;;;3.42;1.45;;;;;;;8.91;86.63;101584.16;5045258;28;20477;-37
2024/01/23 16:11:04;;;;;;;2.08;1.25;;;;;;;8.90;87.44;101585.13;5052172;28;20045;-33
2024/01/23 16:13:30;;;;;;;3.85;1.20;;;;;;;8.84;88.40;101579.50;5051973;28;20511;-34
2024/01/23 16:15:56;;;;;;;3.47;1.60;;;;;;;8.78;89.18;101587.97;5052128;28;20025;-34
2024/01/23 16:18:22;;;;;;;5.38;2.22;;;;;;;8.76;89.83;101587.28;5051455;28;20143;-34
2024/01/23 16:20:48;;;;;;;4.47;1.80;;;;;;;8.83;90.31;101588.44;5050375;28;20111;-35
2024/01/23 16:23:14;;;;;;;7.28;2.00;;;;;;;8.76;89.73;101579.31;5043456;28;20164;-36
2024/01/23 16:25:40;;;;;;;5.38;1.35;;;;;;;8.77;88.95;101575.69;5047267;28;20404;-34
2024/01/23 16:28:06;;;;;;;4.57;1.30;;;;;;;8.87;88.24;101568.63;5047475;28;20033;-35
2024/01/23 16:30:31;;;;;;;2.88;1.35;;;;;;;9.00;84.84;101566.59;5045194;28;20098;-35
2024/01/23 16:32:57;;;;;;;8.13;2.10;;;;;;;8.96;84.49;101559.84;5048527;28;20064;-34
2024/01/23 16:35:23;;;;;;;4.65;1.85;;;;;;;9.02;83.56;101555.84;5045634;28;20051;-40
2024/01/23 16:37:49;;;;;;;4.53;1.42;;;;;;;8.94;83.95;101561.81;5046126;28;20037;-37
2024/01/23 16:40:15;;;;;;;5.50;1.80;;;;;;;9.03;82.74;101546.88;5045997;28;20103;-35
2024/01/23 16:42:41;;;;;;;1.05;0.80;;;;;;;8.87;85.79;101542.91;5050435;28;20064;-36
2024/01/23 16:45:07;;;;;;;3.00;1.92;;;;;;;8.92;85.79;101545.97;5051338;28;20504;-35
2024/01/23 16:47:33;;;;;;;3.60;1.77;;;;;;;8.90;86.17;101541.78;5051051;28;20071;-34